sensor_id;sensor_type;location;lat;lon;timestamp;temperature;humidity
74171;DHT22;62526;50.948;6.590;2022-08-11T00:02:03;21.30;50.50
74171;DHT22;62526;50.948;6.590;2022-08-11T00:04:35;21.20;50.80
74171;DHT22;62526;50.948;6.590;2022-08-11T00:06:56;21.10;51.60
74171;DHT22;62526;50.948;6.590;2022-08-11T00:09:30;21.10;51.80
74171;DHT22;62526;50.948;6.590;2022-08-11T00:11:51;21.00;51.40
74171;DHT22;62526;50.948;6.590;2022-08-11T00:14:18;20.90;51.70
74171;DHT22;62526;50.948;6.590;2022-08-11T00:16:51;20.80;52.10
74171;DHT22;62526;50.948;6.590;2022-08-11T00:19:10;20.70;52.40
74171;DHT22;62526;50.948;6.590;2022-08-11T00:21:40;20.70;52.80
74171;DHT22;62526;50.948;6.590;2022-08-11T00:24:06;20.70;52.90
74171;DHT22;62526;50.948;6.590;2022-08-11T00:26:33;20.60;52.90
74171;DHT22;62526;50.948;6.590;2022-08-11T00:29:07;20.60;53.00
74171;DHT22;62526;50.948;6.590;2022-08-11T00:31:33;20.50;53.00
74171;DHT22;62526;50.948;6.590;2022-08-11T00:34:00;20.50;53.20
74171;DHT22;62526;50.948;6.590;2022-08-11T00:36:28;20.40;53.30
74171;DHT22;62526;50.948;6.590;2022-08-11T00:38:53;20.40;53.40
74171;DHT22;62526;50.948;6.590;2022-08-11T00:41:28;20.30;53.60
74171;DHT22;62526;50.948;6.590;2022-08-11T00:44:20;20.30;53.80
74171;DHT22;62526;50.948;6.590;2022-08-11T00:46:50;20.20;54.10
74171;DHT22;62526;50.948;6.590;2022-08-11T00:49:37;20.20;54.20
74171;DHT22;62526;50.948;6.590;2022-08-11T00:54:56;20.00;54.50
74171;DHT22;62526;50.948;6.590;2022-08-11T00:57:49;19.90;54.60
74171;DHT22;62526;50.948;6.590;2022-08-11T01:00:10;19.90;54.80
74171;DHT22;62526;50.948;6.590;2022-08-11T01:02:55;19.80;55.10
74171;DHT22;62526;50.948;6.590;2022-08-11T01:05:22;19.70;55.40
74171;DHT22;62526;50.948;6.590;2022-08-11T01:10:43;19.70;55.90
74171;DHT22;62526;50.948;6.590;2022-08-11T01:13:43;19.60;55.90
74171;DHT22;62526;50.948;6.590;2022-08-11T01:16:46;19.50;56.10
74171;DHT22;62526;50.948;6.590;2022-08-11T01:19:30;19.50;56.40
74171;DHT22;62526;50.948;6.590;2022-08-11T01:22:02;19.40;56.60
74171;DHT22;62526;50.948;6.590;2022-08-11T01:33:03;19.10;57.10
74171;DHT22;62526;50.948;6.590;2022-08-11T01:35:39;19.10;57.20
74171;DHT22;62526;50.948;6.590;2022-08-11T01:38:11;19.10;57.40
74171;DHT22;62526;50.948;6.590;2022-08-11T01:40:46;19.10;57.40
74171;DHT22;62526;50.948;6.590;2022-08-11T01:43:47;19.10;57.40
74171;DHT22;62526;50.948;6.590;2022-08-11T01:46:00;19.00;57.30
74171;DHT22;62526;50.948;6.590;2022-08-11T01:48:33;19.00;57.40
74171;DHT22;62526;50.948;6.590;2022-08-11T01:51:21;19.00;57.50
74171;DHT22;62526;50.948;6.590;2022-08-11T01:53:53;18.90;57.70
74171;DHT22;62526;50.948;6.590;2022-08-11T01:56:37;18.90;57.70
74171;DHT22;62526;50.948;6.590;2022-08-11T01:59:10;18.90;57.90
74171;DHT22;62526;50.948;6.590;2022-08-11T02:04:38;18.80;58.30
74171;DHT22;62526;50.948;6.590;2022-08-11T02:07:17;18.70;58.40
74171;DHT22;62526;50.948;6.590;2022-08-11T02:09:52;18.70;58.60
74171;DHT22;62526;50.948;6.590;2022-08-11T02:12:35;18.60;58.80
74171;DHT22;62526;50.948;6.590;2022-08-11T02:15:37;18.60;59.00
74171;DHT22;62526;50.948;6.590;2022-08-11T02:17:49;18.60;59.00
74171;DHT22;62526;50.948;6.590;2022-08-11T02:20:22;18.50;59.10
74171;DHT22;62526;50.948;6.590;2022-08-11T02:22:54;18.60;59.30
74171;DHT22;62526;50.948;6.590;2022-08-11T02:25:42;18.50;59.30
74171;DHT22;62526;50.948;6.590;2022-08-11T02:33:42;18.40;59.70
74171;DHT22;62526;50.948;6.590;2022-08-11T02:36:11;18.40;59.90
74171;DHT22;62526;50.948;6.590;2022-08-11T02:38:55;18.40;60.10
74171;DHT22;62526;50.948;6.590;2022-08-11T02:41:24;18.30;60.30
74171;DHT22;62526;50.948;6.590;2022-08-11T02:44:11;18.30;60.60
74171;DHT22;62526;50.948;6.590;2022-08-11T02:46:48;18.30;61.00
74171;DHT22;62526;50.948;6.590;2022-08-11T02:49:15;18.20;60.80
74171;DHT22;62526;50.948;6.590;2022-08-11T02:52:09;18.30;61.00
74171;DHT22;62526;50.948;6.590;2022-08-11T02:54:41;18.30;60.90
74171;DHT22;62526;50.948;6.590;2022-08-11T02:57:15;18.20;60.90
74171;DHT22;62526;50.948;6.590;2022-08-11T03:00:03;18.20;61.20
74171;DHT22;62526;50.948;6.590;2022-08-11T03:02:32;18.20;61.40
74171;DHT22;62526;50.948;6.590;2022-08-11T03:05:05;18.20;61.50
74171;DHT22;62526;50.948;6.590;2022-08-11T03:08:07;18.10;61.40
74171;DHT22;62526;50.948;6.590;2022-08-11T03:10:35;18.10;62.10
74171;DHT22;62526;50.948;6.590;2022-08-11T03:16:00;18.10;61.90
74171;DHT22;62526;50.948;6.590;2022-08-11T03:18:32;18.10;61.80
74171;DHT22;62526;50.948;6.590;2022-08-11T03:21:08;18.10;61.80
74171;DHT22;62526;50.948;6.590;2022-08-11T03:23:57;18.00;61.70
74171;DHT22;62526;50.948;6.590;2022-08-11T03:26:32;18.00;61.80
74171;DHT22;62526;50.948;6.590;2022-08-11T03:29:06;17.90;61.90
74171;DHT22;62526;50.948;6.590;2022-08-11T03:31:34;17.90;62.20
74171;DHT22;62526;50.948;6.590;2022-08-11T03:34:03;17.90;62.40
74171;DHT22;62526;50.948;6.590;2022-08-11T03:42:15;17.80;62.60
74171;DHT22;62526;50.948;6.590;2022-08-11T03:50:27;17.60;63.60
74171;DHT22;62526;50.948;6.590;2022-08-11T03:55:29;17.50;63.30
74171;DHT22;62526;50.948;6.590;2022-08-11T04:01:07;17.50;63.70
74171;DHT22;62526;50.948;6.590;2022-08-11T04:03:43;17.50;63.30
74171;DHT22;62526;50.948;6.590;2022-08-11T04:06:16;17.40;62.80
74171;DHT22;62526;50.948;6.590;2022-08-11T04:09:14;17.40;62.90
74171;DHT22;62526;50.948;6.590;2022-08-11T04:11:57;17.40;62.80
74171;DHT22;62526;50.948;6.590;2022-08-11T04:14:29;17.40;62.90
74171;DHT22;62526;50.948;6.590;2022-08-11T04:20:06;17.30;63.20
74171;DHT22;62526;50.948;6.590;2022-08-11T04:22:48;17.30;63.40
74171;DHT22;62526;50.948;6.590;2022-08-11T04:25:33;17.30;63.40
74171;DHT22;62526;50.948;6.590;2022-08-11T04:30:57;17.30;63.90
74171;DHT22;62526;50.948;6.590;2022-08-11T04:33:33;17.30;63.90
74171;DHT22;62526;50.948;6.590;2022-08-11T04:36:09;17.40;64.50
74171;DHT22;62526;50.948;6.590;2022-08-11T04:38:43;17.40;64.10
74171;DHT22;62526;50.948;6.590;2022-08-11T04:46:52;17.50;63.80
74171;DHT22;62526;50.948;6.590;2022-08-11T04:49:24;17.60;64.40
74171;DHT22;62526;50.948;6.590;2022-08-11T04:52:19;17.60;63.20
74171;DHT22;62526;50.948;6.590;2022-08-11T04:57:26;17.50;63.10
74171;DHT22;62526;50.948;6.590;2022-08-11T05:00:02;17.50;63.90
74171;DHT22;62526;50.948;6.590;2022-08-11T05:06:08;17.40;63.40
74171;DHT22;62526;50.948;6.590;2022-08-11T05:13:28;17.50;63.20
74171;DHT22;62526;50.948;6.590;2022-08-11T05:16:01;17.50;63.10
74171;DHT22;62526;50.948;6.590;2022-08-11T05:18:31;17.50;63.80
74171;DHT22;62526;50.948;6.590;2022-08-11T05:21:08;17.60;62.80
74171;DHT22;62526;50.948;6.590;2022-08-11T05:23:40;17.70;62.90
74171;DHT22;62526;50.948;6.590;2022-08-11T05:26:11;17.70;62.70
74171;DHT22;62526;50.948;6.590;2022-08-11T05:29:00;17.70;62.60
74171;DHT22;62526;50.948;6.590;2022-08-11T05:31:32;17.80;62.80
74171;DHT22;62526;50.948;6.590;2022-08-11T05:34:09;17.80;62.80
74171;DHT22;62526;50.948;6.590;2022-08-11T05:36:47;17.90;63.60
74171;DHT22;62526;50.948;6.590;2022-08-11T05:39:18;18.00;64.00
74171;DHT22;62526;50.948;6.590;2022-08-11T05:41:48;18.10;63.50
74171;DHT22;62526;50.948;6.590;2022-08-11T05:44:21;18.20;63.10
74171;DHT22;62526;50.948;6.590;2022-08-11T05:46:53;18.20;62.90
74171;DHT22;62526;50.948;6.590;2022-08-11T05:49:28;18.30;63.00
74171;DHT22;62526;50.948;6.590;2022-08-11T05:51:58;18.30;63.10
74171;DHT22;62526;50.948;6.590;2022-08-11T05:54:30;18.40;62.30
74171;DHT22;62526;50.948;6.590;2022-08-11T05:57:02;18.50;61.20
74171;DHT22;62526;50.948;6.590;2022-08-11T05:59:29;18.50;60.20
74171;DHT22;62526;50.948;6.590;2022-08-11T06:02:01;18.60;59.70
74171;DHT22;62526;50.948;6.590;2022-08-11T06:04:26;18.60;59.50
74171;DHT22;62526;50.948;6.590;2022-08-11T06:06:57;18.70;59.40
74171;DHT22;62526;50.948;6.590;2022-08-11T06:09:27;18.70;59.40
74171;DHT22;62526;50.948;6.590;2022-08-11T06:11:53;18.80;59.20
74171;DHT22;62526;50.948;6.590;2022-08-11T06:14:19;18.90;59.00
74171;DHT22;62526;50.948;6.590;2022-08-11T06:16:47;19.00;59.00
74171;DHT22;62526;50.948;6.590;2022-08-11T06:19:13;19.00;58.80
74171;DHT22;62526;50.948;6.590;2022-08-11T06:21:42;19.10;58.80
74171;DHT22;62526;50.948;6.590;2022-08-11T06:24:10;19.20;58.60
74171;DHT22;62526;50.948;6.590;2022-08-11T06:26:37;19.30;58.50
74171;DHT22;62526;50.948;6.590;2022-08-11T06:29:03;19.40;58.60
74171;DHT22;62526;50.948;6.590;2022-08-11T06:31:30;19.50;59.20
74171;DHT22;62526;50.948;6.590;2022-08-11T06:34:14;19.70;59.80
74171;DHT22;62526;50.948;6.590;2022-08-11T06:39:26;20.00;58.60
74171;DHT22;62526;50.948;6.590;2022-08-11T06:41:53;20.10;57.50
74171;DHT22;62526;50.948;6.590;2022-08-11T06:44:23;20.20;56.90
74171;DHT22;62526;50.948;6.590;2022-08-11T06:46:49;20.20;56.20
74171;DHT22;62526;50.948;6.590;2022-08-11T06:49:16;20.40;56.00
74171;DHT22;62526;50.948;6.590;2022-08-11T06:51:47;20.50;55.90
74171;DHT22;62526;50.948;6.590;2022-08-11T06:54:14;20.70;55.20
74171;DHT22;62526;50.948;6.590;2022-08-11T06:56:41;20.80;54.90
74171;DHT22;62526;50.948;6.590;2022-08-11T06:59:14;20.90;54.20
74171;DHT22;62526;50.948;6.590;2022-08-11T07:01:59;21.00;54.00
74171;DHT22;62526;50.948;6.590;2022-08-11T07:04:31;21.20;53.70
74171;DHT22;62526;50.948;6.590;2022-08-11T07:07:07;21.30;53.80
74171;DHT22;62526;50.948;6.590;2022-08-11T07:09:55;21.60;52.60
74171;DHT22;62526;50.948;6.590;2022-08-11T07:12:41;21.60;52.60
74171;DHT22;62526;50.948;6.590;2022-08-11T07:15:13;21.70;52.00
74171;DHT22;62526;50.948;6.590;2022-08-11T07:17:48;21.90;51.40
74171;DHT22;62526;50.948;6.590;2022-08-11T07:20:13;22.10;50.80
74171;DHT22;62526;50.948;6.590;2022-08-11T07:22:48;22.10;50.80
74171;DHT22;62526;50.948;6.590;2022-08-11T07:25:18;22.30;50.20
74171;DHT22;62526;50.948;6.590;2022-08-11T07:28:11;22.40;50.00
74171;DHT22;62526;50.948;6.590;2022-08-11T07:30:41;22.60;49.30
74171;DHT22;62526;50.948;6.590;2022-08-11T07:33:08;22.80;48.60
74171;DHT22;62526;50.948;6.590;2022-08-11T07:35:37;22.90;47.70
74171;DHT22;62526;50.948;6.590;2022-08-11T07:38:04;23.00;48.10
74171;DHT22;62526;50.948;6.590;2022-08-11T07:40:30;23.20;47.50
74171;DHT22;62526;50.948;6.590;2022-08-11T07:42:57;23.30;46.90
74171;DHT22;62526;50.948;6.590;2022-08-11T07:45:23;23.40;46.30
74171;DHT22;62526;50.948;6.590;2022-08-11T07:47:56;23.50;46.00
74171;DHT22;62526;50.948;6.590;2022-08-11T07:50:29;23.70;46.30
74171;DHT22;62526;50.948;6.590;2022-08-11T07:53:01;23.80;46.00
74171;DHT22;62526;50.948;6.590;2022-08-11T07:55:29;24.10;45.00
74171;DHT22;62526;50.948;6.590;2022-08-11T07:57:55;24.00;44.90
74171;DHT22;62526;50.948;6.590;2022-08-11T08:00:28;24.20;44.40
74171;DHT22;62526;50.948;6.590;2022-08-11T08:03:00;24.30;43.10
74171;DHT22;62526;50.948;6.590;2022-08-11T08:05:32;24.50;42.50
74171;DHT22;62526;50.948;6.590;2022-08-11T08:08:06;24.60;42.10
74171;DHT22;62526;50.948;6.590;2022-08-11T08:10:38;24.70;41.30
74171;DHT22;62526;50.948;6.590;2022-08-11T08:13:10;24.80;41.70
74171;DHT22;62526;50.948;6.590;2022-08-11T08:15:42;25.00;41.20
74171;DHT22;62526;50.948;6.590;2022-08-11T08:18:15;25.10;40.60
74171;DHT22;62526;50.948;6.590;2022-08-11T08:20:43;25.20;40.20
74171;DHT22;62526;50.948;6.590;2022-08-11T08:23:08;25.30;40.10
74171;DHT22;62526;50.948;6.590;2022-08-11T08:25:37;25.40;40.00
74171;DHT22;62526;50.948;6.590;2022-08-11T08:28:05;25.40;40.00
74171;DHT22;62526;50.948;6.590;2022-08-11T08:30:29;25.60;39.40
74171;DHT22;62526;50.948;6.590;2022-08-11T08:33:01;25.70;40.20
74171;DHT22;62526;50.948;6.590;2022-08-11T08:35:28;25.80;39.30
74171;DHT22;62526;50.948;6.590;2022-08-11T08:37:56;25.90;38.50
74171;DHT22;62526;50.948;6.590;2022-08-11T08:40:23;25.90;38.60
74171;DHT22;62526;50.948;6.590;2022-08-11T08:42:54;26.00;38.50
74171;DHT22;62526;50.948;6.590;2022-08-11T08:45:20;26.10;39.70
74171;DHT22;62526;50.948;6.590;2022-08-11T08:47:52;26.10;39.00
74171;DHT22;62526;50.948;6.590;2022-08-11T08:50:19;26.20;38.10
74171;DHT22;62526;50.948;6.590;2022-08-11T08:52:47;26.40;38.50
74171;DHT22;62526;50.948;6.590;2022-08-11T08:55:16;26.50;38.00
74171;DHT22;62526;50.948;6.590;2022-08-11T08:57:39;26.70;38.10
74171;DHT22;62526;50.948;6.590;2022-08-11T09:00:07;26.80;37.50
74171;DHT22;62526;50.948;6.590;2022-08-11T09:02:34;27.00;37.00
74171;DHT22;62526;50.948;6.590;2022-08-11T09:05:01;27.00;37.10
74171;DHT22;62526;50.948;6.590;2022-08-11T09:07:27;27.10;37.10
74171;DHT22;62526;50.948;6.590;2022-08-11T09:09:55;27.20;37.00
74171;DHT22;62526;50.948;6.590;2022-08-11T09:12:20;27.40;37.20
74171;DHT22;62526;50.948;6.590;2022-08-11T09:14:48;27.50;36.20
74171;DHT22;62526;50.948;6.590;2022-08-11T09:17:20;27.60;35.80
74171;DHT22;62526;50.948;6.590;2022-08-11T09:19:47;27.70;36.40
74171;DHT22;62526;50.948;6.590;2022-08-11T09:22:20;28.00;35.90
74171;DHT22;62526;50.948;6.590;2022-08-11T09:24:53;27.90;35.80
74171;DHT22;62526;50.948;6.590;2022-08-11T09:27:39;28.10;35.70
74171;DHT22;62526;50.948;6.590;2022-08-11T09:30:07;28.20;35.20
74171;DHT22;62526;50.948;6.590;2022-08-11T09:32:34;28.30;34.90
74171;DHT22;62526;50.948;6.590;2022-08-11T09:35:01;28.40;34.80
74171;DHT22;62526;50.948;6.590;2022-08-11T09:37:28;28.50;35.00
74171;DHT22;62526;50.948;6.590;2022-08-11T09:40:00;28.70;34.00
74171;DHT22;62526;50.948;6.590;2022-08-11T09:42:32;28.80;32.80
74171;DHT22;62526;50.948;6.590;2022-08-11T09:45:05;28.80;33.50
74171;DHT22;62526;50.948;6.590;2022-08-11T09:47:32;29.00;33.60
74171;DHT22;62526;50.948;6.590;2022-08-11T09:49:59;29.10;32.60
74171;DHT22;62526;50.948;6.590;2022-08-11T09:52:26;29.10;31.10
74171;DHT22;62526;50.948;6.590;2022-08-11T09:54:52;29.20;30.50
74171;DHT22;62526;50.948;6.590;2022-08-11T09:57:20;29.40;29.70
74171;DHT22;62526;50.948;6.590;2022-08-11T09:59:52;29.30;29.70
74171;DHT22;62526;50.948;6.590;2022-08-11T10:02:22;29.50;28.80
74171;DHT22;62526;50.948;6.590;2022-08-11T10:04:47;29.60;29.30
74171;DHT22;62526;50.948;6.590;2022-08-11T10:07:14;29.60;29.60
74171;DHT22;62526;50.948;6.590;2022-08-11T10:09:49;29.70;28.10
74171;DHT22;62526;50.948;6.590;2022-08-11T10:12:24;29.90;27.40
74171;DHT22;62526;50.948;6.590;2022-08-11T10:14:53;30.00;26.80
74171;DHT22;62526;50.948;6.590;2022-08-11T10:17:25;30.10;28.00
74171;DHT22;62526;50.948;6.590;2022-08-11T10:19:51;30.20;27.70
74171;DHT22;62526;50.948;6.590;2022-08-11T10:22:18;30.30;27.40
74171;DHT22;62526;50.948;6.590;2022-08-11T10:24:51;30.40;26.80
74171;DHT22;62526;50.948;6.590;2022-08-11T10:27:23;30.50;25.40
74171;DHT22;62526;50.948;6.590;2022-08-11T10:29:50;30.60;26.00
74171;DHT22;62526;50.948;6.590;2022-08-11T10:32:23;30.60;27.70
74171;DHT22;62526;50.948;6.590;2022-08-11T10:34:54;30.80;27.60
74171;DHT22;62526;50.948;6.590;2022-08-11T10:37:22;30.90;27.00
74171;DHT22;62526;50.948;6.590;2022-08-11T10:39:48;30.90;26.50
74171;DHT22;62526;50.948;6.590;2022-08-11T10:42:15;31.00;26.10
74171;DHT22;62526;50.948;6.590;2022-08-11T10:44:49;31.00;26.10
74171;DHT22;62526;50.948;6.590;2022-08-11T10:47:14;31.10;27.00
74171;DHT22;62526;50.948;6.590;2022-08-11T10:49:46;31.10;27.00
74171;DHT22;62526;50.948;6.590;2022-08-11T10:52:13;31.30;26.50
74171;DHT22;62526;50.948;6.590;2022-08-11T10:54:45;31.40;26.60
74171;DHT22;62526;50.948;6.590;2022-08-11T10:57:18;31.50;26.20
74171;DHT22;62526;50.948;6.590;2022-08-11T10:59:50;31.60;26.00
74171;DHT22;62526;50.948;6.590;2022-08-11T11:02:17;31.70;25.60
74171;DHT22;62526;50.948;6.590;2022-08-11T11:05:03;31.90;25.40
74171;DHT22;62526;50.948;6.590;2022-08-11T11:07:38;32.20;25.00
74171;DHT22;62526;50.948;6.590;2022-08-11T11:10:07;32.20;25.00
74171;DHT22;62526;50.948;6.590;2022-08-11T11:12:40;32.30;24.90
74171;DHT22;62526;50.948;6.590;2022-08-11T11:15:11;32.40;25.00
74171;DHT22;62526;50.948;6.590;2022-08-11T11:17:47;32.50;24.90
74171;DHT22;62526;50.948;6.590;2022-08-11T11:20:29;32.60;24.80
74171;DHT22;62526;50.948;6.590;2022-08-11T11:22:56;32.70;24.80
74171;DHT22;62526;50.948;6.590;2022-08-11T11:28:09;33.10;24.70
74171;DHT22;62526;50.948;6.590;2022-08-11T11:30:36;33.30;24.40
74171;DHT22;62526;50.948;6.590;2022-08-11T11:33:10;33.40;24.30
74171;DHT22;62526;50.948;6.590;2022-08-11T11:35:40;33.50;24.30
74171;DHT22;62526;50.948;6.590;2022-08-11T11:38:05;33.80;24.40
74171;DHT22;62526;50.948;6.590;2022-08-11T11:40:32;33.90;24.00
74171;DHT22;62526;50.948;6.590;2022-08-11T11:42:58;34.10;24.30
74171;DHT22;62526;50.948;6.590;2022-08-11T11:45:25;34.30;24.20
74171;DHT22;62526;50.948;6.590;2022-08-11T11:47:53;34.60;24.50
74171;DHT22;62526;50.948;6.590;2022-08-11T11:50:29;34.90;22.90
74171;DHT22;62526;50.948;6.590;2022-08-11T11:52:55;35.10;23.20
74171;DHT22;62526;50.948;6.590;2022-08-11T11:55:22;35.20;23.00
74171;DHT22;62526;50.948;6.590;2022-08-11T11:57:48;35.40;23.70
74171;DHT22;62526;50.948;6.590;2022-08-11T12:00:20;35.70;23.20
74171;DHT22;62526;50.948;6.590;2022-08-11T12:02:57;36.00;22.30
74171;DHT22;62526;50.948;6.590;2022-08-11T12:05:23;36.00;22.30
74171;DHT22;62526;50.948;6.590;2022-08-11T12:07:51;36.10;21.90
74171;DHT22;62526;50.948;6.590;2022-08-11T12:10:23;36.30;22.10
74171;DHT22;62526;50.948;6.590;2022-08-11T12:12:51;36.60;20.90
74171;DHT22;62526;50.948;6.590;2022-08-11T12:15:23;36.60;20.90
74171;DHT22;62526;50.948;6.590;2022-08-11T12:17:51;36.50;21.20
74171;DHT22;62526;50.948;6.590;2022-08-11T12:20:18;36.60;21.70
74171;DHT22;62526;50.948;6.590;2022-08-11T12:22:46;36.80;21.00
74171;DHT22;62526;50.948;6.590;2022-08-11T12:25:19;37.40;21.00
74171;DHT22;62526;50.948;6.590;2022-08-11T12:27:52;37.40;20.90
74171;DHT22;62526;50.948;6.590;2022-08-11T12:30:19;37.50;20.70
74171;DHT22;62526;50.948;6.590;2022-08-11T12:32:45;37.60;20.50
74171;DHT22;62526;50.948;6.590;2022-08-11T12:35:13;37.80;20.10
74171;DHT22;62526;50.948;6.590;2022-08-11T12:37:41;38.00;20.20
74171;DHT22;62526;50.948;6.590;2022-08-11T12:40:08;38.30;19.20
74171;DHT22;62526;50.948;6.590;2022-08-11T12:42:40;38.10;19.30
74171;DHT22;62526;50.948;6.590;2022-08-11T12:45:13;38.70;19.30
74171;DHT22;62526;50.948;6.590;2022-08-11T12:47:46;38.60;19.20
74171;DHT22;62526;50.948;6.590;2022-08-11T12:50:28;38.90;19.00
74171;DHT22;62526;50.948;6.590;2022-08-11T12:53:00;39.00;18.80
74171;DHT22;62526;50.948;6.590;2022-08-11T12:55:27;39.20;19.00
74171;DHT22;62526;50.948;6.590;2022-08-11T12:57:59;39.40;18.20
74171;DHT22;62526;50.948;6.590;2022-08-11T13:00:32;39.40;18.30
74171;DHT22;62526;50.948;6.590;2022-08-11T13:03:05;39.50;18.30
74171;DHT22;62526;50.948;6.590;2022-08-11T13:05:37;39.60;18.20
74171;DHT22;62526;50.948;6.590;2022-08-11T13:08:04;39.90;18.20
74171;DHT22;62526;50.948;6.590;2022-08-11T13:10:31;39.90;18.20
74171;DHT22;62526;50.948;6.590;2022-08-11T13:13:03;39.90;18.70
74171;DHT22;62526;50.948;6.590;2022-08-11T13:15:29;40.30;18.10
74171;DHT22;62526;50.948;6.590;2022-08-11T13:17:56;40.60;17.20
74171;DHT22;62526;50.948;6.590;2022-08-11T13:20:23;40.60;17.20
74171;DHT22;62526;50.948;6.590;2022-08-11T13:22:52;41.00;17.30
74171;DHT22;62526;50.948;6.590;2022-08-11T13:25:17;41.00;17.30
74171;DHT22;62526;50.948;6.590;2022-08-11T13:27:44;41.40;17.10
74171;DHT22;62526;50.948;6.590;2022-08-11T13:30:12;41.50;17.00
74171;DHT22;62526;50.948;6.590;2022-08-11T13:32:44;41.60;16.80
74171;DHT22;62526;50.948;6.590;2022-08-11T13:35:12;41.70;17.50
74171;DHT22;62526;50.948;6.590;2022-08-11T13:37:41;41.90;17.00
74171;DHT22;62526;50.948;6.590;2022-08-11T13:40:07;41.80;17.00
74171;DHT22;62526;50.948;6.590;2022-08-11T13:42:35;42.00;16.90
74171;DHT22;62526;50.948;6.590;2022-08-11T13:45:04;42.40;16.40
74171;DHT22;62526;50.948;6.590;2022-08-11T13:47:31;42.30;16.30
74171;DHT22;62526;50.948;6.590;2022-08-11T13:49:58;42.50;16.30
74171;DHT22;62526;50.948;6.590;2022-08-11T13:52:25;42.80;16.10
74171;DHT22;62526;50.948;6.590;2022-08-11T13:54:51;42.80;16.40
74171;DHT22;62526;50.948;6.590;2022-08-11T13:57:18;42.50;15.60
74171;DHT22;62526;50.948;6.590;2022-08-11T13:59:45;42.30;15.80
74171;DHT22;62526;50.948;6.590;2022-08-11T14:02:14;42.70;15.80
74171;DHT22;62526;50.948;6.590;2022-08-11T14:04:42;42.60;15.80
74171;DHT22;62526;50.948;6.590;2022-08-11T14:07:08;42.60;15.70
74171;DHT22;62526;50.948;6.590;2022-08-11T14:09:38;42.50;15.80
74171;DHT22;62526;50.948;6.590;2022-08-11T14:12:06;42.50;16.00
74171;DHT22;62526;50.948;6.590;2022-08-11T14:14:36;42.70;15.80
74171;DHT22;62526;50.948;6.590;2022-08-11T14:17:04;42.80;15.40
74171;DHT22;62526;50.948;6.590;2022-08-11T14:19:31;43.60;15.60
74171;DHT22;62526;50.948;6.590;2022-08-11T14:21:57;43.50;16.10
74171;DHT22;62526;50.948;6.590;2022-08-11T14:24:30;43.90;15.00
74171;DHT22;62526;50.948;6.590;2022-08-11T14:26:57;44.30;15.00
74171;DHT22;62526;50.948;6.590;2022-08-11T14:29:25;44.30;15.00
74171;DHT22;62526;50.948;6.590;2022-08-11T14:31:53;44.30;15.00
74171;DHT22;62526;50.948;6.590;2022-08-11T14:34:19;44.40;14.40
74171;DHT22;62526;50.948;6.590;2022-08-11T14:36:48;44.50;14.50
74171;DHT22;62526;50.948;6.590;2022-08-11T14:39:14;44.20;14.80
74171;DHT22;62526;50.948;6.590;2022-08-11T14:41:41;44.10;14.70
74171;DHT22;62526;50.948;6.590;2022-08-11T14:44:12;44.40;14.80
74171;DHT22;62526;50.948;6.590;2022-08-11T14:46:44;44.50;14.30
74171;DHT22;62526;50.948;6.590;2022-08-11T14:49:18;44.90;14.10
74171;DHT22;62526;50.948;6.590;2022-08-11T14:51:45;44.90;14.10
74171;DHT22;62526;50.948;6.590;2022-08-11T14:54:11;45.00;14.20
74171;DHT22;62526;50.948;6.590;2022-08-11T14:56:43;44.90;14.40
74171;DHT22;62526;50.948;6.590;2022-08-11T14:59:10;45.10;14.30
74171;DHT22;62526;50.948;6.590;2022-08-11T15:01:37;45.30;14.30
74171;DHT22;62526;50.948;6.590;2022-08-11T15:04:23;45.40;14.40
74171;DHT22;62526;50.948;6.590;2022-08-11T15:06:50;45.60;14.30
74171;DHT22;62526;50.948;6.590;2022-08-11T15:09:16;45.80;14.30
74171;DHT22;62526;50.948;6.590;2022-08-11T15:11:43;46.00;14.00
74171;DHT22;62526;50.948;6.590;2022-08-11T15:14:16;45.40;14.10
74171;DHT22;62526;50.948;6.590;2022-08-11T15:16:43;45.40;14.10
74171;DHT22;62526;50.948;6.590;2022-08-11T15:19:15;45.20;14.40
74171;DHT22;62526;50.948;6.590;2022-08-11T15:21:42;45.20;14.40
74171;DHT22;62526;50.948;6.590;2022-08-11T15:24:14;45.30;14.40
74171;DHT22;62526;50.948;6.590;2022-08-11T15:26:45;45.20;14.30
74171;DHT22;62526;50.948;6.590;2022-08-11T15:29:19;45.50;14.30
74171;DHT22;62526;50.948;6.590;2022-08-11T15:31:50;45.50;14.30
74171;DHT22;62526;50.948;6.590;2022-08-11T15:34:24;45.60;14.40
74171;DHT22;62526;50.948;6.590;2022-08-11T15:36:56;45.80;14.20
74171;DHT22;62526;50.948;6.590;2022-08-11T15:39:48;45.80;14.20
74171;DHT22;62526;50.948;6.590;2022-08-11T15:42:28;45.80;14.20
74171;DHT22;62526;50.948;6.590;2022-08-11T15:45:02;45.90;14.30
74171;DHT22;62526;50.948;6.590;2022-08-11T15:47:49;46.10;14.30
74171;DHT22;62526;50.948;6.590;2022-08-11T15:50:16;46.50;14.00
74171;DHT22;62526;50.948;6.590;2022-08-11T15:52:45;46.50;13.70
74171;DHT22;62526;50.948;6.590;2022-08-11T15:55:09;46.40;13.80
74171;DHT22;62526;50.948;6.590;2022-08-11T15:57:36;46.60;13.90
74171;DHT22;62526;50.948;6.590;2022-08-11T16:00:13;46.30;14.00
74171;DHT22;62526;50.948;6.590;2022-08-11T16:02:47;45.50;14.00
74171;DHT22;62526;50.948;6.590;2022-08-11T16:05:31;45.40;14.10
74171;DHT22;62526;50.948;6.590;2022-08-11T16:07:59;45.40;14.10
74171;DHT22;62526;50.948;6.590;2022-08-11T16:10:25;45.80;14.10
74171;DHT22;62526;50.948;6.590;2022-08-11T16:12:56;46.10;13.80
74171;DHT22;62526;50.948;6.590;2022-08-11T16:15:37;46.10;13.80
74171;DHT22;62526;50.948;6.590;2022-08-11T16:18:08;46.00;13.80
74171;DHT22;62526;50.948;6.590;2022-08-11T16:20:36;45.80;13.80
74171;DHT22;62526;50.948;6.590;2022-08-11T16:23:03;45.70;14.10
74171;DHT22;62526;50.948;6.590;2022-08-11T16:25:32;45.40;14.60
74171;DHT22;62526;50.948;6.590;2022-08-11T16:27:58;45.30;14.70
74171;DHT22;62526;50.948;6.590;2022-08-11T16:30:23;45.20;14.30
74171;DHT22;62526;50.948;6.590;2022-08-11T16:32:50;45.30;15.00
74171;DHT22;62526;50.948;6.590;2022-08-11T16:35:19;45.40;14.10
74171;DHT22;62526;50.948;6.590;2022-08-11T16:37:50;45.60;14.70
74171;DHT22;62526;50.948;6.590;2022-08-11T16:40:22;45.70;14.10
74171;DHT22;62526;50.948;6.590;2022-08-11T16:42:50;45.90;14.60
74171;DHT22;62526;50.948;6.590;2022-08-11T16:45:22;45.90;14.00
74171;DHT22;62526;50.948;6.590;2022-08-11T16:47:55;45.90;14.20
74171;DHT22;62526;50.948;6.590;2022-08-11T16:50:22;45.60;13.60
74171;DHT22;62526;50.948;6.590;2022-08-11T16:52:48;45.20;14.00
74171;DHT22;62526;50.948;6.590;2022-08-11T16:55:15;44.90;13.90
74171;DHT22;62526;50.948;6.590;2022-08-11T16:57:42;44.60;14.30
74171;DHT22;62526;50.948;6.590;2022-08-11T17:00:15;44.60;14.70
74171;DHT22;62526;50.948;6.590;2022-08-11T17:02:46;44.60;14.70
74171;DHT22;62526;50.948;6.590;2022-08-11T17:05:17;44.40;14.90
74171;DHT22;62526;50.948;6.590;2022-08-11T17:07:49;44.50;15.60